Allendale, Illinois
Current Conditions -  °F | °C
As of 2:15 PM on Friday 31 Oct 2014 (Local Time) from KAJG Reporting Station
Overcast Overcast  
Wind Chill: 36°   Ceiling: 4300
Heat Index: 45°   Visibility: 10mi
Dew Point: 32°   Wind: 22mph
Humidity: 61%   Direction: 320°NW
Pressure: 30.13"   Gusts: 29mph
Location:  38.53°N, 87.71°W
Report Text: KAJG 311915Z AUTO 32019G25KT 10SM SCT036 BKN043 OVC050 07/00 A3013 RMK AO2
Loading
Personal Weather Stations






























Interactive Weather Map
Tropical Storm Tracking
New forecast layout! Learn more

10-Day Weather Forecast

Advertisements
Track Severe Weather on mobile